Time;durP1;ratioP1;P1;durP2;ratioP2;P2;SDS_P1;SDS_P2;PMS_P1;PMS_P2;Temp;Humidity;BMP_temperature;BMP_pressure;BME280_temperature;BME280_humidity;BME280_pressure;Samples;Min_cycle;Max_cycle;Signal;HPM_P1;HPM_P2
2023/05/01 00:00:38;;;;;;;;;;;15.40;74.60;;;15.64;47.23;98639.38;4910750;28;114512;-79
2023/05/01 00:03:07;;;;;;;;;;;15.40;74.80;;;15.63;47.61;98632.16;4910759;28;113774;-77
2023/05/01 00:05:34;;;;;;;;;;;15.40;75.00;;;15.60;47.48;98639.22;4911085;28;124264;-80
2023/05/01 00:08:00;;;;;;;;;;;15.40;75.10;;;15.59;47.80;98634.03;4910494;28;124282;-76
2023/05/01 00:10:34;;;;;;;;;;;15.30;75.10;;;15.58;47.73;98632.38;4911126;28;114457;-76
2023/05/01 00:13:09;;;;;;;;;;;15.30;75.20;;;15.55;48.14;98631.13;4911497;28;113030;-75
2023/05/01 00:15:35;;;;;;;;;;;15.30;75.30;;;15.53;47.69;98638.19;4904220;28;123882;-76
2023/05/01 00:18:02;;;;;;;;;;;15.30;75.40;;;15.50;48.02;98623.03;4906235;28;124428;-76
2023/05/01 00:20:32;;;;;;;;;;;15.30;75.60;;;15.48;48.11;98617.00;4911023;28;115415;-75
2023/05/01 00:23:00;;;;;;;;;;;15.20;75.60;;;15.45;48.12;98618.50;4913398;28;116111;-76
2023/05/01 00:25:33;;;;;;;;;;;15.20;76.50;;;15.43;48.17;98612.47;4905716;28;124209;-76
2023/05/01 00:28:02;;;;;;;;;;;15.20;75.90;;;15.40;48.56;98610.38;4907196;28;124687;-78
2023/05/01 00:30:32;;;;;;;;;;;15.20;76.10;;;15.38;48.37;98609.91;4911366;28;114380;-76
2023/05/01 00:33:01;;;;;;;;;;;15.10;76.20;;;15.35;48.47;98616.19;4911872;28;114577;-76
2023/05/01 00:35:34;;;;;;;;;;;15.10;76.40;;;15.33;48.73;98612.13;4911379;28;124022;-79
2023/05/01 00:38:01;;;;;;;;;;;15.10;76.60;;;15.29;48.68;98606.44;4913496;28;124031;-76
2023/05/01 00:40:30;;;;;;;;;;;15.10;76.70;;;15.27;48.84;98599.59;4910164;28;114459;-79
2023/05/01 00:42:56;;;;;;;;;;;15.00;76.80;;;15.23;48.88;98596.69;4893657;28;113614;-77
2023/05/01 00:45:24;;;;;;;;;;;15.00;77.00;;;15.21;48.92;98604.59;4895370;28;124598;-77
2023/05/01 00:47:56;;;;;;;;;;;15.00;77.10;;;15.18;49.24;98600.53;4909607;28;123908;-75
2023/05/01 00:50:22;;;;;;;;;;;14.90;77.20;;;15.15;49.02;98594.84;4911319;28;114435;-76
2023/05/01 00:52:48;;;;;;;;;;;14.90;77.30;;;15.13;49.26;98591.59;4910899;28;113710;-76
2023/05/01 00:55:24;;;;;;;;;;;14.90;77.40;;;15.10;49.19;98593.13;4907006;28;123860;-77
2023/05/01 00:57:50;;;;;;;;;;;14.80;77.40;;;15.08;49.17;98589.06;4904172;28;123712;-79
2023/05/01 01:00:23;;;;;;;;;;;14.80;77.60;;;15.06;49.28;98589.38;4905184;28;114842;-78
2023/05/01 01:02:50;;;;;;;;;;;14.80;77.70;;;15.03;49.32;98581.75;4920956;28;113858;-78
2023/05/01 01:05:23;;;;;;;;;;;14.80;77.90;;;15.01;49.39;98579.28;4913623;28;124505;-75
2023/05/01 01:08:01;;;;;;;;;;;14.80;78.00;;;15.00;49.61;98583.25;4908015;28;124498;-76
2023/05/01 01:10:42;;;;;;;;;;;14.70;78.00;;;14.97;49.70;98570.03;4910611;28;115453;-80
2023/05/01 01:13:13;;;;;;;;;;;14.70;78.10;;;14.97;49.65;98567.25;4906411;28;114420;-77
2023/05/01 01:15:49;;;;;;;;;;;14.70;78.30;;;14.97;49.59;98572.81;4901310;28;124357;-76
2023/05/01 01:18:47;;;;;;;;;;;14.70;78.40;;;14.96;49.37;98565.63;4900684;28;123638;-77
2023/05/01 01:21:19;;;;;;;;;;;14.70;78.60;;;14.97;49.71;98563.66;4909021;28;115121;-78
2023/05/01 01:24:19;;;;;;;;;;;14.70;78.60;;;14.95;49.64;98560.41;4910755;28;113731;-75
2023/05/01 01:27:21;;;;;;;;;;;14.60;78.50;;;14.90;49.67;98555.88;4908329;28;124764;-76
2023/05/01 01:30:01;;;;;;;;;;;14.60;79.20;;;14.91;49.47;98556.69;4895820;28;123621;-78
2023/05/01 01:32:31;;;;;;;;;;;14.60;78.60;;;14.89;49.44;98562.63;4893456;28;114353;-79
2023/05/01 01:35:09;;;;;;;;;;;14.60;78.60;;;14.89;49.59;98559.84;4903695;28;113657;-76
2023/05/01 01:37:49;;;;;;;;;;;14.60;78.60;;;14.87;49.43;98567.72;4898984;28;124465;-76
2023/05/01 01:40:25;;;;;;;;;;;14.60;78.60;;;14.87;49.41;98561.34;4899649;28;124582;-77
2023/05/01 01:42:58;;;;;;;;;;;14.60;78.70;;;14.85;49.69;98563.66;4911673;28;113982;-75
2023/05/01 01:45:36;;;;;;;;;;;14.60;78.70;;;14.82;49.50;98554.03;4909930;28;113999;-78
2023/05/01 01:48:11;;;;;;;;;;;14.50;78.60;;;14.78;49.71;98565.03;4910018;28;124328;-80
2023/05/01 01:50:38;;;;;;;;;;;14.50;78.60;;;14.78;49.57;98558.66;4911565;28;123764;-80
2023/05/01 01:53:14;;;;;;;;;;;14.50;78.70;;;14.77;49.75;98557.84;4906781;28;114356;-79
2023/05/01 01:55:47;;;;;;;;;;;14.50;78.70;;;14.76;49.67;98552.63;4900304;28;113547;-76
2023/05/01 01:58:15;;;;;;;;;;;14.50;79.00;;;14.74;49.70;98547.41;4923962;28;124078;-77
2023/05/01 02:00:44;;;;;;;;;;;14.50;79.00;;;14.75;49.94;98553.81;4908106;28;124170;-79
2023/05/01 02:03:11;;;;;;;;;;;14.50;79.10;;;14.75;49.88;98548.25;4906348;28;115400;-78
2023/05/01 02:05:38;;;;;;;;;;;14.40;79.20;;;14.75;50.03;98548.25;4896340;28;115058;-80
2023/05/01 02:08:10;;;;;;;;;;;14.40;79.30;;;14.74;50.10;98550.19;4906353;28;124281;-79
2023/05/01 02:10:40;;;;;;;;;;;14.40;79.40;;;14.73;50.12;98539.44;4905810;28;123960;-75
2023/05/01 02:13:09;;;;;;;;;;;14.40;79.50;;;14.72;50.08;98540.56;4893763;28;113914;-76
2023/05/01 02:15:37;;;;;;;;;;;14.40;79.70;;;14.70;50.26;98531.78;4905014;28;113880;-77
2023/05/01 02:18:10;;;;;;;;;;;14.40;79.80;;;14.70;50.17;98529.00;4909486;28;123395;-76
2023/05/01 02:20:38;;;;;;;;;;;14.40;79.90;;;14.69;50.15;98527.34;4906178;28;124170;-77
2023/05/01 02:23:11;;;;;;;;;;;14.40;80.00;;;14.68;50.20;98526.56;4900516;28;114084;-76
2023/05/01 02:25:38;;;;;;;;;;;14.40;80.10;;;14.69;50.33;98527.34;4894276;28;113549;-76
2023/05/01 02:28:16;;;;;;;;;;;14.40;80.20;;;14.68;50.34;98529.34;4908890;28;124566;-77
2023/05/01 02:30:45;;;;;;;;;;;14.30;80.30;;;14.68;50.60;98525.75;4895953;28;124125;-79
2023/05/01 02:33:12;;;;;;;;;;;14.40;80.60;;;14.66;50.76;98531.66;4909153;28;114631;-79
2023/05/01 02:35:48;;;;;;;;;;;14.40;80.70;;;14.65;50.84;98518.91;4910234;28;113665;-80
2023/05/01 02:38:15;;;;;;;;;;;14.30;80.80;;;14.65;50.89;98523.66;4897063;28;125484;-76
2023/05/01 02:40:49;;;;;;;;;;;14.30;80.90;;;14.64;51.05;98519.25;4911318;28;124037;-77
2023/05/01 02:43:20;;;;;;;;;;;14.30;81.10;;;14.63;51.07;98512.88;4913237;28;114260;-80
2023/05/01 02:45:48;;;;;;;;;;;14.30;81.20;;;14.62;51.15;98510.47;4905115;28;113767;-76
2023/05/01 02:48:22;;;;;;;;;;;14.30;81.40;;;14.63;51.16;98507.31;4911495;28;124228;-76
2023/05/01 02:50:48;;;;;;;;;;;14.30;81.50;;;14.62;51.25;98504.91;4911982;28;123897;-80
2023/05/01 02:53:15;;;;;;;;;;;14.30;81.70;;;14.62;51.49;98502.91;4910165;28;115177;-76
2023/05/01 02:55:49;;;;;;;;;;;14.30;81.80;;;14.62;51.37;98500.13;4912348;28;114843;-82
2023/05/01 02:58:16;;;;;;;;;;;14.30;81.90;;;14.61;51.36;98508.81;4909100;28;124242;-78
2023/05/01 03:00:47;;;;;;;;;;;14.30;82.10;;;14.61;51.47;98508.81;4912089;28;124010;-80
2023/05/01 03:03:13;;;;;;;;;;;14.30;82.30;;;14.60;51.48;98498.88;4911731;28;114427;-76
2023/05/01 03:05:45;;;;;;;;;;;14.30;82.30;;;14.58;51.60;98500.00;4910530;28;114416;-79
2023/05/01 03:08:11;;;;;;;;;;;14.30;82.50;;;14.58;51.96;98500.00;4911305;28;124809;-81
2023/05/01 03:10:49;;;;;;;;;;;14.30;82.60;;;14.57;51.92;98498.38;4899021;28;124162;-78
2023/05/01 03:13:15;;;;;;;;;;;14.30;82.70;;;14.57;51.74;98506.72;4912720;28;115588;-75
2023/05/01 03:15:47;;;;;;;;;;;14.20;82.70;;;14.57;51.77;98500.38;4909156;28;113583;-80
2023/05/01 03:18:14;;;;;;;;;;;14.30;83.00;;;14.57;51.88;98498.38;4911394;28;124247;-75
2023/05/01 03:20:50;;;;;;;;;;;14.30;83.10;;;14.56;51.70;98499.56;4909702;28;124114;-77
2023/05/01 03:23:16;;;;;;;;;;;14.30;83.20;;;14.55;52.00;98497.91;4911420;28;115193;-76
2023/05/01 03:25:46;;;;;;;;;;;14.20;83.20;;;14.52;52.15;98495.00;4911334;28;113760;-78
2023/05/01 03:28:15;;;;;;;;;;;14.10;83.10;;;14.49;52.09;98496.50;4912018;28;124293;-78
2023/05/01 03:30:49;;;;;;;;;;;14.20;83.20;;;14.44;52.08;98493.94;4913973;28;123806;-76
2023/05/01 03:33:15;;;;;;;;;;;14.20;83.20;;;14.42;51.96;98495.44;4915346;28;114260;-79
2023/05/01 03:35:48;;;;;;;;;;;14.20;83.20;;;14.40;51.98;98486.63;4904536;28;113575;-79
2023/05/01 03:38:14;;;;;;;;;;;14.20;83.30;;;14.39;52.25;98491.38;4909492;28;124282;-79
2023/05/01 03:40:45;;;;;;;;;;;14.10;83.30;;;14.40;52.15;98481.06;4909910;28;123146;-77
2023/05/01 03:43:11;;;;;;;;;;;14.10;83.40;;;14.39;52.35;98490.59;4910921;28;115393;-77
2023/05/01 03:45:37;;;;;;;;;;;14.10;83.50;;;14.39;52.43;98480.28;4909510;28;114851;-78
2023/05/01 03:48:04;;;;;;;;;;;14.10;83.70;;;14.38;52.26;98483.41;4911258;28;123985;-79
2023/05/01 03:50:33;;;;;;;;;;;14.10;83.80;;;14.39;52.38;98482.25;4908975;28;123990;-78
2023/05/01 03:52:59;;;;;;;;;;;14.10;83.90;;;14.39;52.31;98473.91;4906808;28;115500;-78
2023/05/01 03:55:26;;;;;;;;;;;14.10;84.00;;;14.39;52.51;98471.13;4903942;28;113213;-77
2023/05/01 03:57:52;;;;;;;;;;;14.10;84.10;;;14.39;52.28;98474.72;4904977;28;124303;-80
2023/05/01 04:00:21;;;;;;;;;;;14.10;84.20;;;14.41;52.41;98461.28;4909178;28;122875;-78
2023/05/01 04:02:47;;;;;;;;;;;13.20;83.50;;;14.39;52.63;98466.38;4910768;28;114542;-75
2023/05/01 04:05:14;;;;;;;;;;;14.10;84.50;;;14.39;52.50;98471.94;4911458;28;113626;-78
2023/05/01 04:07:40;;;;;;;;;;;14.10;84.30;;;14.31;52.60;98473.66;4908690;28;124431;-76
2023/05/01 04:10:09;;;;;;;;;;;14.00;84.40;;;14.23;52.76;98471.78;4909146;28;123737;-79
2023/05/01 04:12:36;;;;;;;;;;;14.00;84.20;;;14.21;52.63;98473.28;4903315;28;115869;-76
2023/05/01 04:15:04;;;;;;;;;;;14.00;84.30;;;14.21;52.75;98470.50;4910628;28;113759;-76
2023/05/01 04:17:35;;;;;;;;;;;14.00;84.30;;;14.20;52.75;98474.47;4900307;28;123891;-78
2023/05/01 04:20:05;;;;;;;;;;;13.90;84.40;;;14.21;52.69;98473.28;4910314;28;123974;-78
2023/05/01 04:22:34;;;;;;;;;;;13.90;84.50;;;14.21;52.75;98467.72;4904826;28;114415;-78
2023/05/01 04:25:00;;;;;;;;;;;14.00;84.80;;;14.22;52.95;98474.94;4907241;28;113991;-77
2023/05/01 04:27:26;;;;;;;;;;;13.90;84.70;;;14.22;53.11;98466.59;4897171;28;124387;-78
2023/05/01 04:29:53;;;;;;;;;;;13.90;84.90;;;14.19;53.04;98468.09;4897041;28;122869;-79
2023/05/01 04:32:27;;;;;;;;;;;13.90;85.10;;;14.14;52.92;98463.56;4904910;28;115398;-79
2023/05/01 04:34:59;;;;;;;;;;;13.90;85.00;;;14.11;53.14;98469.81;4902582;28;114669;-77
2023/05/01 04:37:25;;;;;;;;;;;13.90;85.10;;;14.07;53.22;98466.09;4910914;28;124174;-77
2023/05/01 04:39:52;;;;;;;;;;;13.90;85.30;;;14.07;53.37;98479.16;4899759;28;123923;-77
2023/05/01 04:42:21;;;;;;;;;;;13.90;85.20;;;14.07;53.23;98477.19;4900976;28;114577;-79
2023/05/01 04:44:47;;;;;;;;;;;13.90;85.40;;;14.08;53.32;98466.91;4906230;28;114550;-80
2023/05/01 04:47:14;;;;;;;;;;;13.80;85.30;;;14.07;53.17;98474.41;4921928;28;124750;-77
2023/05/01 04:49:40;;;;;;;;;;;13.80;85.40;;;14.05;53.17;98487.03;4896341;28;124543;-81
2023/05/01 04:52:09;;;;;;;;;;;13.80;85.40;;;13.97;53.17;98477.66;4906903;28;114351;-79
2023/05/01 04:54:35;;;;;;;;;;;13.80;85.20;;;13.90;53.16;98477.41;4910456;28;113900;-77
2023/05/01 04:57:02;;;;;;;;;;;13.70;84.90;;;13.84;53.07;98481.53;4908563;28;124090;-80
2023/05/01 04:59:28;;;;;;;;;;;13.60;85.00;;;13.80;53.22;98475.03;4899744;28;123939;-81
2023/05/01 05:01:57;;;;;;;;;;;13.60;85.10;;;13.78;53.26;98485.66;4903406;28;114464;-77
2023/05/01 05:04:24;;;;;;;;;;;13.60;85.20;;;13.76;53.15;98483.25;4912157;28;114321;-79
2023/05/01 05:06:50;;;;;;;;;;;13.50;85.10;;;13.74;53.21;98482.78;4905384;28;125029;-80
2023/05/01 05:09:21;;;;;;;;;;;13.50;85.30;;;13.76;53.20;98485.22;4891548;28;123869;-81
2023/05/01 05:11:47;;;;;;;;;;;13.50;85.10;;;13.78;53.28;98480.13;4897394;28;114206;-77
2023/05/01 05:14:13;;;;;;;;;;;13.50;85.20;;;13.81;53.13;98480.25;4901659;28;113773;-80
2023/05/01 05:16:40;;;;;;;;;;;13.60;85.40;;;13.85;53.24;98483.16;4898344;28;124159;-76
2023/05/01 05:19:09;;;;;;;;;;;13.50;85.30;;;13.90;53.11;98477.41;4898388;28;124283;-78
2023/05/01 05:21:36;;;;;;;;;;;13.60;85.50;;;13.93;53.16;98469.19;4905965;28;115914;-76
2023/05/01 05:24:02;;;;;;;;;;;13.60;85.50;;;13.93;53.04;98473.94;4893063;28;114943;-77
2023/05/01 05:26:35;;;;;;;;;;;13.60;85.60;;;13.87;53.35;98475.31;4907522;28;124414;-76
2023/05/01 05:29:01;;;;;;;;;;;13.60;85.60;;;13.81;53.15;98473.88;4898324;28;122860;-75
2023/05/01 05:31:32;;;;;;;;;;;13.60;85.50;;;13.78;53.28;98482.91;4910260;28;114324;-78
2023/05/01 05:33:58;;;;;;;;;;;13.60;85.50;;;13.77;53.23;98472.94;4912228;28;115395;-74
2023/05/01 05:36:26;;;;;;;;;;;13.50;85.30;;;13.78;52.91;98478.19;4908973;28;124126;-78
2023/05/01 05:39:01;;;;;;;;;;;13.50;85.20;;;13.80;52.89;98475.03;4910289;28;124646;-78
2023/05/01 05:41:33;;;;;;;;;;;13.50;85.20;;;13.83;52.81;98479.91;4910140;28;114606;-78
2023/05/01 05:44:02;;;;;;;;;;;13.50;85.20;;;13.83;52.81;98474.34;4909574;28;113820;-75
2023/05/01 05:46:32;;;;;;;;;;;13.50;85.10;;;13.86;52.83;98490.31;4910073;28;123812;-76
2023/05/01 05:48:59;;;;;;;;;;;13.60;85.30;;;13.90;52.87;98480.16;4910144;28;124643;-76
2023/05/01 05:51:25;;;;;;;;;;;13.60;85.30;;;13.96;52.58;98478.78;4909945;28;114402;-79
2023/05/01 05:53:51;;;;;;;;;;;13.60;85.30;;;14.01;52.48;98486.09;4910210;28;113804;-77
2023/05/01 05:56:19;;;;;;;;;;;13.70;85.30;;;14.04;51.87;98480.66;4908713;28;124107;-80
2023/05/01 05:58:45;;;;;;;;;;;13.70;85.20;;;14.09;52.16;98477.66;4909767;28;125052;-78
2023/05/01 06:01:11;;;;;;;;;;;13.70;85.10;;;14.13;52.26;98484.19;4895615;28;113468;-76
2023/05/01 06:03:38;;;;;;;;;;;13.80;85.10;;;14.19;52.22;98486.75;4895296;28;113574;-78
2023/05/01 06:06:07;;;;;;;;;;;13.70;85.10;;;14.21;52.30;98476.91;4899656;28;124197;-75
2023/05/01 06:08:35;;;;;;;;;;;13.80;85.30;;;14.23;52.47;98474.56;4908446;28;123828;-75
2023/05/01 06:11:01;;;;;;;;;;;13.90;85.50;;;14.26;52.41;98481.41;4900612;28;115369;-74
2023/05/01 06:13:28;;;;;;;;;;;13.80;85.50;;;14.29;52.44;98475.16;4908929;28;114699;-80
2023/05/01 06:15:54;;;;;;;;;;;13.90;85.70;;;14.30;52.50;98472.03;4906079;28;123865;-81
2023/05/01 06:18:23;;;;;;;;;;;13.90;85.70;;;14.30;52.61;98476.78;4908873;28;123971;-78
2023/05/01 06:20:51;;;;;;;;;;;14.00;86.00;;;14.32;52.68;98477.28;4906346;28;115176;-81
2023/05/01 06:23:17;;;;;;;;;;;14.00;85.90;;;14.36;52.68;98483.75;4904948;28;113759;-82
2023/05/01 06:25:48;;;;;;;;;;;14.00;85.90;;;14.40;52.66;98479.13;4909167;28;124161;-79
2023/05/01 06:28:15;;;;;;;;;;;14.00;86.20;;;14.42;52.67;98479.56;4906903;28;123793;-80
2023/05/01 06:30:41;;;;;;;;;;;14.00;86.20;;;14.43;52.56;98472.06;4909081;28;114740;-79
2023/05/01 06:33:09;;;;;;;;;;;14.00;86.20;;;14.44;52.70;98482.81;4900463;28;114374;-77
2023/05/01 06:35:41;;;;;;;;;;;14.10;86.10;;;14.41;52.58;98489.09;4908914;28;124271;-82
2023/05/01 06:38:07;;;;;;;;;;;14.10;86.10;;;14.38;52.73;98483.41;4880715;28;123569;-80
2023/05/01 06:40:34;;;;;;;;;;;14.10;86.00;;;14.35;52.82;98482.94;4898278;28;114181;-83
2023/05/01 06:43:03;;;;;;;;;;;14.00;86.00;;;14.35;52.92;98485.72;4908197;28;112833;-79
2023/05/01 06:45:29;;;;;;;;;;;14.10;86.40;;;14.34;52.97;98494.38;4899421;28;124801;-81
2023/05/01 06:47:56;;;;;;;;;;;14.10;86.30;;;14.34;53.09;98495.19;4907445;28;123991;-79
2023/05/01 06:50:22;;;;;;;;;;;14.10;86.40;;;14.36;53.33;98486.53;4897486;28;114291;-78
2023/05/01 06:52:51;;;;;;;;;;;14.10;86.40;;;14.42;53.10;98496.25;4909323;28;113714;-81
2023/05/01 06:55:17;;;;;;;;;;;15.30;87.70;;;14.50;53.07;98497.31;4904159;28;124770;-81
2023/05/01 06:57:43;;;;;;;;;;;14.20;86.70;;;14.55;53.00;98502.69;4896360;28;124571;-80
2023/05/01 07:00:10;;;;;;;;;;;14.20;86.70;;;14.58;52.93;98502.78;4897921;28;115378;-80
2023/05/01 07:02:40;;;;;;;;;;;14.20;86.90;;;14.62;53.13;98502.91;4901509;28;114231;-79
2023/05/01 07:05:06;;;;;;;;;;;14.20;86.80;;;14.63;52.97;98507.31;4906997;28;123386;-78
2023/05/01 07:07:32;;;;;;;;;;;14.30;86.80;;;14.64;53.01;98508.13;4898114;28;124473;-81
2023/05/01 07:09:59;;;;;;;;;;;14.30;86.80;;;14.66;52.82;98512.19;4898599;28;114045;-78
2023/05/01 07:12:28;;;;;;;;;;;14.30;86.80;;;14.68;52.93;98504.31;4906529;28;113810;-79
2023/05/01 07:14:55;;;;;;;;;;;14.30;86.80;;;14.73;52.50;98512.44;4903656;28;124311;-79
2023/05/01 07:17:22;;;;;;;;;;;15.00;87.40;;;14.76;52.93;98508.13;4908903;28;124140;-79
2023/05/01 07:19:51;;;;;;;;;;;14.40;86.90;;;14.73;52.75;98500.50;4889873;28;114116;-81
2023/05/01 07:22:18;;;;;;;;;;;14.40;86.80;;;14.76;52.56;98516.47;4904831;28;113938;-79
2023/05/01 07:24:44;;;;;;;;;;;14.40;86.60;;;14.75;52.68;98509.31;4909380;28;123486;-80
2023/05/01 07:27:10;;;;;;;;;;;14.40;86.80;;;14.71;52.72;98513.94;4904722;28;123678;-78
2023/05/01 07:29:40;;;;;;;;;;;14.30;86.70;;;14.71;52.81;98508.38;4905568;28;115020;-78
2023/05/01 07:32:06;;;;;;;;;;;14.40;86.90;;;14.71;52.92;98509.16;4900986;28;113265;-77
2023/05/01 07:34:51;;;;;;;;;;;14.30;87.10;;;14.72;53.04;98502.47;4903857;28;124542;-80
2023/05/01 07:37:17;;;;;;;;;;;14.30;87.10;;;14.75;53.26;98499.00;4906489;28;123739;-79
2023/05/01 07:39:44;;;;;;;;;;;14.40;87.50;;;14.79;52.89;98502.69;4897659;28;114039;-83
2023/05/01 07:42:10;;;;;;;;;;;14.40;87.60;;;14.85;53.28;98496.88;4923898;28;113757;-78
2023/05/01 07:44:39;;;;;;;;;;;14.50;87.80;;;14.91;53.52;98501.88;4906324;28;124631;-79
2023/05/01 07:47:07;;;;;;;;;;;14.50;88.10;;;14.93;53.78;98496.75;4910796;28;123969;-81
2023/05/01 07:49:39;;;;;;;;;;;14.50;88.00;;;14.98;53.25;98492.94;4915119;28;115495;-77
2023/05/01 07:52:08;;;;;;;;;;;14.50;88.00;;;15.03;53.18;98493.50;4903038;28;116653;-81
2023/05/01 07:54:34;;;;;;;;;;;14.60;88.10;;;15.11;53.02;98493.75;4910483;28;124046;-83
2023/05/01 07:57:05;;;;;;;;;;;14.60;88.00;;;15.16;53.26;98497.09;4910273;28;124131;-78
2023/05/01 07:59:31;;;;;;;;;;;14.70;88.40;;;15.14;52.59;98498.59;4908903;28;114524;-84
2023/05/01 08:02:15;;;;;;;;;;;14.70;87.70;;;15.11;52.84;98491.75;4919039;28;116065;-80
2023/05/01 08:04:41;;;;;;;;;;;14.70;87.50;;;15.14;52.81;98482.72;4907531;28;123894;-81
2023/05/01 08:07:07;;;;;;;;;;;14.70;87.40;;;15.21;52.51;98490.50;4902775;28;123818;-84
2023/05/01 08:09:34;;;;;;;;;;;14.80;87.40;;;15.26;52.44;98481.91;4911257;28;114408;-85
2023/05/01 08:12:05;;;;;;;;;;;14.80;87.40;;;15.30;52.36;98474.44;4911154;28;113874;-85
2023/05/01 08:14:32;;;;;;;;;;;14.90;87.40;;;15.33;52.52;98484.88;4908453;28;124477;-83
2023/05/01 08:16:58;;;;;;;;;;;14.90;87.30;;;15.36;52.12;98483.38;4902197;28;123862;-79
2023/05/01 08:19:27;;;;;;;;;;;14.90;87.10;;;15.40;52.31;98484.28;4910835;28;114440;-85
2023/05/01 08:21:53;;;;;;;;;;;14.90;87.10;;;15.44;52.14;98485.19;4911012;28;113860;-81
2023/05/01 08:24:19;;;;;;;;;;;15.00;87.00;;;15.50;52.05;98478.22;4911337;28;124091;-86
2023/05/01 08:26:55;;;;;;;;;;;15.10;87.00;;;15.58;51.91;98479.22;4910783;28;124382;-76
2023/05/01 08:29:22;;;;;;;;;;;15.10;87.20;;;15.62;51.98;98474.59;4910840;28;114484;-81
2023/05/01 08:31:51;;;;;;;;;;;15.20;87.30;;;15.71;52.61;98475.25;4914603;28;113767;-77
2023/05/01 08:34:17;;;;;;;;;;;15.20;87.70;;;15.80;52.14;98473.16;4905728;28;124032;-76
2023/05/01 08:36:43;;;;;;;;;;;15.30;87.60;;;15.88;51.57;98474.16;4907563;28;124207;-77
2023/05/01 08:39:10;;;;;;;;;;;15.30;87.10;;;15.93;51.19;98468.31;4908856;28;115441;-78
2023/05/01 08:41:44;;;;;;;;;;;15.40;86.70;;;15.98;51.23;98467.25;4908767;28;112412;-81
2023/05/01 08:44:18;;;;;;;;;;;15.50;86.50;;;16.01;50.66;98463.75;4898902;28;124310;-82
2023/05/01 08:47:06;;;;;;;;;;;15.50;86.20;;;16.08;50.52;98461.16;4913066;28;123836;-84
2023/05/01 08:49:33;;;;;;;;;;;15.60;85.90;;;16.12;50.64;98462.06;4905607;28;114953;-82
2023/05/01 08:52:10;;;;;;;;;;;15.60;85.70;;;16.17;50.21;98460.97;4906749;28;113832;-79
2023/05/01 08:54:43;;;;;;;;;;;15.60;85.30;;;16.23;49.99;98454.00;4909671;28;123769;-78
2023/05/01 08:57:11;;;;;;;;;;;15.70;85.50;;;16.30;49.92;98459.72;4903817;28;124195;-84
2023/05/01 08:59:40;;;;;;;;;;;15.80;85.30;;;16.38;49.85;98460.72;4905501;28;114444;-84
2023/05/01 09:02:08;;;;;;;;;;;15.80;85.10;;;16.46;49.62;98465.31;4910780;28;113278;-82
2023/05/01 09:04:40;;;;;;;;;;;15.90;85.00;;;16.55;49.72;98465.97;4904827;28;124423;-82
2023/05/01 09:07:07;;;;;;;;;;;15.90;84.90;;;16.63;49.49;98462.19;4912552;28;124323;-78
2023/05/01 09:09:38;;;;;;;;;;;16.10;84.80;;;16.69;49.14;98471.88;4892887;28;113735;-82
2023/05/01 09:12:26;;;;;;;;;;;15.20;83.80;;;16.76;49.06;98472.06;4906623;28;113858;-84
2023/05/01 09:14:54;;;;;;;;;;;16.20;85.20;;;16.86;49.08;98467.13;4906504;28;124125;-82
2023/05/01 09:17:21;;;;;;;;;;;16.20;84.50;;;16.95;48.86;98462.16;4907496;28;124003;-80
2023/05/01 09:19:51;;;;;;;;;;;16.40;84.50;;;17.03;48.68;98463.94;4908767;28;114364;-78
2023/05/01 09:22:17;;;;;;;;;;;16.40;84.30;;;17.10;48.66;98463.28;4908486;28;113846;-79
2023/05/01 09:24:44;;;;;;;;;;;16.50;84.10;;;17.15;48.65;98463.81;4916764;28;123246;-79
2023/05/01 09:27:14;;;;;;;;;;;16.50;84.00;;;17.21;48.62;98467.13;4909976;28;124949;-84
2023/05/01 09:29:46;;;;;;;;;;;16.60;84.10;;;17.27;48.65;98459.28;4903346;28;115250;-80
2023/05/01 09:32:15;;;;;;;;;;;16.70;84.00;;;17.31;48.22;98463.78;4899133;28;116013;-81
2023/05/01 09:34:42;;;;;;;;;;;16.70;83.70;;;17.33;48.32;98463.38;4907048;28;124100;-84
2023/05/01 09:37:31;;;;;;;;;;;16.80;83.50;;;17.33;48.43;98467.00;4908302;28;124381;-85
2023/05/01 09:40:15;;;;;;;;;;;16.90;83.60;;;17.38;48.20;98457.53;4902226;28;114117;-80
2023/05/01 09:42:56;;;;;;;;;;;16.90;83.50;;;17.39;47.99;98462.75;4894273;28;113982;-81
2023/05/01 09:45:27;;;;;;;;;;;16.90;83.30;;;17.40;48.29;98471.94;4897772;28;124062;-84
2023/05/01 09:48:09;;;;;;;;;;;16.90;83.50;;;17.43;48.50;98463.63;4910575;28;123809;-80
2023/05/01 09:50:45;;;;;;;;;;;16.90;83.70;;;17.49;48.49;98457.75;4908327;28;114184;-85
2023/05/01 09:53:12;;;;;;;;;;;17.00;83.90;;;17.53;48.53;98459.44;4903116;28;113858;-82
2023/05/01 09:55:39;;;;;;;;;;;17.00;83.80;;;17.57;48.47;98462.31;4903820;28;123977;-81
2023/05/01 09:58:05;;;;;;;;;;;17.00;83.70;;;17.61;48.44;98455.63;4912353;28;124018;-79
2023/05/01 10:00:46;;;;;;;;;;;18.50;84.90;;;17.66;48.70;98458.13;4912705;28;114882;-83
2023/05/01 10:03:15;;;;;;;;;;;17.20;83.80;;;17.73;48.05;98454.69;4907665;28;113778;-84
2023/05/01 10:05:45;;;;;;;;;;;17.20;83.20;;;17.73;47.82;98457.47;4908945;28;124581;-81
2023/05/01 10:08:15;;;;;;;;;;;17.30;82.90;;;17.74;47.65;98459.09;4907263;28;123755;-83
2023/05/01 10:10:46;;;;;;;;;;;17.30;82.70;;;17.76;47.59;98461.50;4907124;28;114567;-82
2023/05/01 10:13:16;;;;;;;;;;;17.30;82.50;;;17.72;47.48;98458.63;4896571;28;113823;-79
2023/05/01 10:15:51;;;;;;;;;;;17.30;82.20;;;17.69;47.42;98455.78;4907726;28;124012;-80
2023/05/01 10:18:21;;;;;;;;;;;17.20;82.30;;;17.70;47.42;98462.97;4904113;28;123302;-78
2023/05/01 10:20:51;;;;;;;;;;;16.70;81.90;;;17.71;47.59;98459.81;4903286;28;115838;-79
2023/05/01 10:23:18;;;;;;;;;;;17.30;82.30;;;17.71;47.47;98459.81;4902845;28;115322;-80
2023/05/01 10:25:52;;;;;;;;;;;17.30;82.00;;;17.76;47.41;98464.28;4911189;28;124406;-84
2023/05/01 10:28:24;;;;;;;;;;;17.30;82.20;;;17.82;47.45;98460.06;4901242;28;123460;-80
2023/05/01 10:30:51;;;;;;;;;;;17.40;82.40;;;17.91;47.40;98459.84;4905958;28;114101;-78
2023/05/01 10:33:17;;;;;;;;;;;17.50;82.20;;;17.92;47.18;98459.47;4898310;28;113615;-81
2023/05/01 10:35:56;;;;;;;;;;;17.50;81.70;;;17.92;47.31;98459.47;4888237;28;118325;-79
2023/05/01 10:38:29;;;;;;;;;;;17.60;81.90;;;17.94;47.10;98462.69;4912351;28;123981;-79
2023/05/01 10:40:55;;;;;;;;;;;17.60;81.60;;;17.95;46.92;98458.72;4895718;28;114936;-77
2023/05/01 10:43:29;;;;;;;;;;;17.50;81.30;;;18.00;46.86;98461.22;4909727;28;113748;-80
2023/05/01 10:46:20;;;;;;;;;;;17.60;81.50;;;18.05;47.01;98460.94;4899352;28;124417;-81
2023/05/01 10:48:53;;;;;;;;;;;17.60;81.50;;;18.07;46.66;98461.34;4903926;28;124009;-80
2023/05/01 10:51:20;;;;;;;;;;;17.60;81.10;;;18.08;46.76;98456.56;4898411;28;114394;-81
2023/05/01 10:54:06;;;;;;;;;;;17.60;81.40;;;18.15;46.97;98453.91;4905231;28;113250;-78
2023/05/01 10:56:32;;;;;;;;;;;17.70;81.70;;;18.27;46.85;98447.34;4911422;28;124315;-83
2023/05/01 10:59:05;;;;;;;;;;;17.70;81.70;;;18.38;46.66;98445.53;4908335;28;123589;-78
2023/05/01 11:01:32;;;;;;;;;;;17.80;81.60;;;18.39;46.00;98444.34;4911971;28;114659;-78
2023/05/01 11:04:20;;;;;;;;;;;16.70;79.50;;;18.44;46.17;98449.63;4906271;28;113792;-83
2023/05/01 11:07:07;;;;;;;;;;;18.00;80.90;;;18.46;45.90;98444.47;4900851;28;124229;-76
2023/05/01 11:09:39;;;;;;;;;;;18.00;80.50;;;18.44;45.44;98438.44;4902475;28;124767;-78
2023/05/01 11:12:07;;;;;;;;;;;18.00;79.60;;;18.42;45.46;98438.00;4903972;28;115190;-82
2023/05/01 11:15:04;;;;;;;;;;;18.00;79.60;;;18.42;45.57;98442.78;4905977;28;114652;-78
2023/05/01 11:17:39;;;;;;;;;;;18.00;79.60;;;18.47;45.82;98434.88;4905129;28;124017;-77
2023/05/01 11:20:29;;;;;;;;;;;18.00;80.00;;;18.55;45.76;98441.41;4911951;28;123891;-82
2023/05/01 11:22:56;;;;;;;;;;;18.10;80.10;;;18.67;45.67;98437.59;4903332;28;114158;-83